sensor_id;sensor_type;location;lat;lon;timestamp;P1;durP1;ratioP1;P2;durP2;ratioP2
59424;SDS011;45231;44.826;20.312;2023-08-08T00:02:16;2.10;;;0.60;;
59424;SDS011;45231;44.826;20.312;2023-08-08T00:04:42;0.77;;;0.55;;
59424;SDS011;45231;44.826;20.312;2023-08-08T00:07:08;2.95;;;0.68;;
59424;SDS011;45231;44.826;20.312;2023-08-08T00:09:35;2.67;;;0.60;;
59424;SDS011;45231;44.826;20.312;2023-08-08T00:12:02;4.10;;;0.80;;
59424;SDS011;45231;44.826;20.312;2023-08-08T00:14:29;3.35;;;0.70;;
59424;SDS011;45231;44.826;20.312;2023-08-08T00:16:55;2.00;;;0.65;;
59424;SDS011;45231;44.826;20.312;2023-08-08T00:19:21;1.77;;;0.70;;
59424;SDS011;45231;44.826;20.312;2023-08-08T00:21:47;2.90;;;0.63;;
59424;SDS011;45231;44.826;20.312;2023-08-08T00:24:13;1.98;;;0.60;;
59424;SDS011;45231;44.826;20.312;2023-08-08T00:26:39;2.65;;;0.60;;
59424;SDS011;45231;44.826;20.312;2023-08-08T00:29:05;1.98;;;0.70;;
59424;SDS011;45231;44.826;20.312;2023-08-08T00:31:31;3.33;;;0.82;;
59424;SDS011;45231;44.826;20.312;2023-08-08T00:33:57;2.40;;;0.68;;
59424;SDS011;45231;44.826;20.312;2023-08-08T00:36:24;4.00;;;0.80;;
59424;SDS011;45231;44.826;20.312;2023-08-08T00:38:50;4.13;;;0.68;;
59424;SDS011;45231;44.826;20.312;2023-08-08T00:41:16;1.27;;;0.60;;
59424;SDS011;45231;44.826;20.312;2023-08-08T00:43:42;1.75;;;0.82;;
59424;SDS011;45231;44.826;20.312;2023-08-08T00:46:08;3.67;;;0.52;;
59424;SDS011;45231;44.826;20.312;2023-08-08T00:48:34;2.90;;;0.70;;
59424;SDS011;45231;44.826;20.312;2023-08-08T00:51:00;3.50;;;0.63;;
59424;SDS011;45231;44.826;20.312;2023-08-08T00:53:27;1.88;;;0.70;;
59424;SDS011;45231;44.826;20.312;2023-08-08T00:55:56;1.77;;;0.70;;
59424;SDS011;45231;44.826;20.312;2023-08-08T00:58:22;3.15;;;0.90;;
59424;SDS011;45231;44.826;20.312;2023-08-08T01:00:48;5.05;;;0.77;;
59424;SDS011;45231;44.826;20.312;2023-08-08T01:03:14;4.43;;;0.80;;
59424;SDS011;45231;44.826;20.312;2023-08-08T01:05:47;3.08;;;0.82;;
59424;SDS011;45231;44.826;20.312;2023-08-08T01:08:15;1.23;;;0.68;;
59424;SDS011;45231;44.826;20.312;2023-08-08T01:10:42;2.50;;;0.88;;
59424;SDS011;45231;44.826;20.312;2023-08-08T01:13:18;1.35;;;0.75;;
59424;SDS011;45231;44.826;20.312;2023-08-08T01:15:46;2.22;;;0.80;;
59424;SDS011;45231;44.826;20.312;2023-08-08T01:18:12;3.40;;;1.02;;
59424;SDS011;45231;44.826;20.312;2023-08-08T01:20:40;3.05;;;0.90;;
59424;SDS011;45231;44.826;20.312;2023-08-08T01:23:11;1.60;;;0.70;;
59424;SDS011;45231;44.826;20.312;2023-08-08T01:25:39;2.40;;;0.70;;
59424;SDS011;45231;44.826;20.312;2023-08-08T01:28:05;4.85;;;1.30;;
59424;SDS011;45231;44.826;20.312;2023-08-08T01:30:31;2.40;;;0.90;;
59424;SDS011;45231;44.826;20.312;2023-08-08T01:32:57;4.10;;;1.00;;
59424;SDS011;45231;44.826;20.312;2023-08-08T01:35:24;3.95;;;0.90;;
59424;SDS011;45231;44.826;20.312;2023-08-08T01:37:57;2.17;;;0.90;;
59424;SDS011;45231;44.826;20.312;2023-08-08T01:40:25;2.95;;;0.88;;
59424;SDS011;45231;44.826;20.312;2023-08-08T01:42:51;2.13;;;0.70;;
59424;SDS011;45231;44.826;20.312;2023-08-08T01:45:18;2.08;;;0.80;;
59424;SDS011;45231;44.826;20.312;2023-08-08T01:47:51;1.30;;;0.80;;
59424;SDS011;45231;44.826;20.312;2023-08-08T01:50:18;3.28;;;0.75;;
59424;SDS011;45231;44.826;20.312;2023-08-08T01:52:46;2.25;;;0.82;;
59424;SDS011;45231;44.826;20.312;2023-08-08T01:55:12;2.25;;;0.80;;
59424;SDS011;45231;44.826;20.312;2023-08-08T01:57:38;3.30;;;1.08;;
59424;SDS011;45231;44.826;20.312;2023-08-08T02:00:05;2.03;;;0.88;;
59424;SDS011;45231;44.826;20.312;2023-08-08T02:02:33;2.65;;;0.90;;
59424;SDS011;45231;44.826;20.312;2023-08-08T02:05:01;2.40;;;1.10;;
59424;SDS011;45231;44.826;20.312;2023-08-08T02:07:27;2.00;;;0.90;;
59424;SDS011;45231;44.826;20.312;2023-08-08T02:09:53;2.42;;;1.00;;
59424;SDS011;45231;44.826;20.312;2023-08-08T02:12:19;5.25;;;0.80;;
59424;SDS011;45231;44.826;20.312;2023-08-08T02:14:45;2.03;;;0.82;;
59424;SDS011;45231;44.826;20.312;2023-08-08T02:17:11;4.22;;;0.90;;
59424;SDS011;45231;44.826;20.312;2023-08-08T02:19:37;2.83;;;0.95;;
59424;SDS011;45231;44.826;20.312;2023-08-08T02:22:03;1.80;;;0.90;;
59424;SDS011;45231;44.826;20.312;2023-08-08T02:24:29;3.15;;;0.90;;
59424;SDS011;45231;44.826;20.312;2023-08-08T02:26:55;2.70;;;1.00;;
59424;SDS011;45231;44.826;20.312;2023-08-08T02:29:21;2.20;;;0.90;;
59424;SDS011;45231;44.826;20.312;2023-08-08T02:31:47;2.13;;;0.95;;
59424;SDS011;45231;44.826;20.312;2023-08-08T02:34:13;3.55;;;1.13;;
59424;SDS011;45231;44.826;20.312;2023-08-08T02:36:40;1.40;;;0.80;;
59424;SDS011;45231;44.826;20.312;2023-08-08T02:39:06;2.17;;;0.98;;
59424;SDS011;45231;44.826;20.312;2023-08-08T02:41:32;2.13;;;0.95;;
59424;SDS011;45231;44.826;20.312;2023-08-08T02:43:58;2.20;;;0.80;;
59424;SDS011;45231;44.826;20.312;2023-08-08T02:46:24;1.48;;;0.75;;
59424;SDS011;45231;44.826;20.312;2023-08-08T02:48:50;3.30;;;1.10;;
59424;SDS011;45231;44.826;20.312;2023-08-08T02:51:16;2.10;;;1.00;;
59424;SDS011;45231;44.826;20.312;2023-08-08T02:53:42;2.58;;;1.10;;
59424;SDS011;45231;44.826;20.312;2023-08-08T02:56:08;5.18;;;1.20;;
59424;SDS011;45231;44.826;20.312;2023-08-08T02:58:34;2.15;;;0.88;;
59424;SDS011;45231;44.826;20.312;2023-08-08T03:01:00;3.38;;;1.15;;
59424;SDS011;45231;44.826;20.312;2023-08-08T03:03:26;3.90;;;1.00;;
59424;SDS011;45231;44.826;20.312;2023-08-08T03:08:19;2.05;;;1.10;;
59424;SDS011;45231;44.826;20.312;2023-08-08T03:10:45;3.17;;;1.10;;
59424;SDS011;45231;44.826;20.312;2023-08-08T03:13:11;3.22;;;1.27;;
59424;SDS011;45231;44.826;20.312;2023-08-08T03:15:37;4.05;;;0.85;;
59424;SDS011;45231;44.826;20.312;2023-08-08T03:18:03;4.10;;;1.40;;
59424;SDS011;45231;44.826;20.312;2023-08-08T03:20:29;2.70;;;1.10;;
59424;SDS011;45231;44.826;20.312;2023-08-08T03:22:55;3.13;;;1.02;;
59424;SDS011;45231;44.826;20.312;2023-08-08T03:25:21;4.20;;;1.40;;
59424;SDS011;45231;44.826;20.312;2023-08-08T03:27:47;2.55;;;1.10;;
59424;SDS011;45231;44.826;20.312;2023-08-08T03:30:13;4.18;;;1.15;;
59424;SDS011;45231;44.826;20.312;2023-08-08T03:32:40;5.00;;;1.20;;
59424;SDS011;45231;44.826;20.312;2023-08-08T03:35:06;6.65;;;1.20;;
59424;SDS011;45231;44.826;20.312;2023-08-08T03:37:34;1.65;;;0.90;;
59424;SDS011;45231;44.826;20.312;2023-08-08T03:40:00;2.63;;;1.20;;
59424;SDS011;45231;44.826;20.312;2023-08-08T03:42:26;2.92;;;1.20;;
59424;SDS011;45231;44.826;20.312;2023-08-08T03:44:52;3.10;;;1.20;;
59424;SDS011;45231;44.826;20.312;2023-08-08T03:47:18;2.67;;;1.08;;
59424;SDS011;45231;44.826;20.312;2023-08-08T03:49:44;5.00;;;1.10;;
59424;SDS011;45231;44.826;20.312;2023-08-08T03:52:10;3.60;;;1.30;;
59424;SDS011;45231;44.826;20.312;2023-08-08T03:54:36;2.67;;;1.00;;
59424;SDS011;45231;44.826;20.312;2023-08-08T03:57:03;2.92;;;1.10;;
59424;SDS011;45231;44.826;20.312;2023-08-08T03:59:29;2.40;;;1.15;;
59424;SDS011;45231;44.826;20.312;2023-08-08T04:01:55;3.83;;;1.17;;
59424;SDS011;45231;44.826;20.312;2023-08-08T04:04:21;2.25;;;1.08;;
59424;SDS011;45231;44.826;20.312;2023-08-08T04:06:47;3.42;;;1.02;;
59424;SDS011;45231;44.826;20.312;2023-08-08T04:09:13;2.67;;;1.20;;
59424;SDS011;45231;44.826;20.312;2023-08-08T04:11:39;2.10;;;0.88;;
59424;SDS011;45231;44.826;20.312;2023-08-08T04:14:05;2.75;;;1.00;;
59424;SDS011;45231;44.826;20.312;2023-08-08T04:16:31;2.80;;;1.05;;
59424;SDS011;45231;44.826;20.312;2023-08-08T04:18:57;2.38;;;1.00;;
59424;SDS011;45231;44.826;20.312;2023-08-08T04:21:24;3.25;;;1.20;;
59424;SDS011;45231;44.826;20.312;2023-08-08T04:23:52;3.13;;;1.20;;
59424;SDS011;45231;44.826;20.312;2023-08-08T04:26:18;3.45;;;1.40;;
59424;SDS011;45231;44.826;20.312;2023-08-08T04:28:44;3.67;;;1.00;;
59424;SDS011;45231;44.826;20.312;2023-08-08T04:31:10;4.28;;;1.10;;
59424;SDS011;45231;44.826;20.312;2023-08-08T04:33:36;2.53;;;1.30;;
59424;SDS011;45231;44.826;20.312;2023-08-08T04:36:02;3.97;;;1.00;;
59424;SDS011;45231;44.826;20.312;2023-08-08T04:38:28;3.53;;;1.20;;
59424;SDS011;45231;44.826;20.312;2023-08-08T04:40:54;2.55;;;1.00;;
59424;SDS011;45231;44.826;20.312;2023-08-08T04:43:20;9.25;;;1.15;;
59424;SDS011;45231;44.826;20.312;2023-08-08T04:45:46;5.85;;;1.40;;
59424;SDS011;45231;44.826;20.312;2023-08-08T04:48:12;2.60;;;1.02;;
59424;SDS011;45231;44.826;20.312;2023-08-08T04:50:38;5.45;;;1.10;;
59424;SDS011;45231;44.826;20.312;2023-08-08T04:53:05;2.25;;;1.00;;
59424;SDS011;45231;44.826;20.312;2023-08-08T04:55:32;2.67;;;1.05;;
59424;SDS011;45231;44.826;20.312;2023-08-08T04:57:58;3.38;;;1.17;;
59424;SDS011;45231;44.826;20.312;2023-08-08T05:00:26;5.88;;;1.83;;
59424;SDS011;45231;44.826;20.312;2023-08-08T05:02:52;4.20;;;1.10;;
59424;SDS011;45231;44.826;20.312;2023-08-08T05:05:18;2.05;;;0.90;;
59424;SDS011;45231;44.826;20.312;2023-08-08T05:07:44;2.88;;;1.10;;
59424;SDS011;45231;44.826;20.312;2023-08-08T05:10:10;2.90;;;1.02;;
59424;SDS011;45231;44.826;20.312;2023-08-08T05:12:36;3.15;;;1.20;;
59424;SDS011;45231;44.826;20.312;2023-08-08T05:15:03;1.48;;;0.80;;
59424;SDS011;45231;44.826;20.312;2023-08-08T05:17:30;4.75;;;1.48;;
59424;SDS011;45231;44.826;20.312;2023-08-08T05:19:57;2.47;;;1.08;;
59424;SDS011;45231;44.826;20.312;2023-08-08T05:22:23;2.80;;;1.00;;
59424;SDS011;45231;44.826;20.312;2023-08-08T05:24:49;2.00;;;0.90;;
59424;SDS011;45231;44.826;20.312;2023-08-08T05:27:15;2.70;;;1.17;;
59424;SDS011;45231;44.826;20.312;2023-08-08T05:29:41;2.33;;;1.08;;
59424;SDS011;45231;44.826;20.312;2023-08-08T05:32:07;2.88;;;1.15;;
59424;SDS011;45231;44.826;20.312;2023-08-08T05:34:34;2.55;;;1.10;;
59424;SDS011;45231;44.826;20.312;2023-08-08T05:37:00;2.30;;;1.08;;
59424;SDS011;45231;44.826;20.312;2023-08-08T05:39:26;3.15;;;1.10;;
59424;SDS011;45231;44.826;20.312;2023-08-08T05:41:52;2.90;;;1.00;;
59424;SDS011;45231;44.826;20.312;2023-08-08T05:44:18;3.65;;;1.17;;
59424;SDS011;45231;44.826;20.312;2023-08-08T05:46:44;3.22;;;1.10;;
59424;SDS011;45231;44.826;20.312;2023-08-08T05:49:10;2.65;;;0.98;;
59424;SDS011;45231;44.826;20.312;2023-08-08T05:51:37;3.88;;;1.00;;
59424;SDS011;45231;44.826;20.312;2023-08-08T05:54:03;2.90;;;1.10;;
59424;SDS011;45231;44.826;20.312;2023-08-08T05:56:35;3.05;;;0.95;;
59424;SDS011;45231;44.826;20.312;2023-08-08T05:59:01;2.70;;;1.00;;
59424;SDS011;45231;44.826;20.312;2023-08-08T06:01:28;3.60;;;1.17;;
59424;SDS011;45231;44.826;20.312;2023-08-08T06:03:54;3.40;;;1.10;;
59424;SDS011;45231;44.826;20.312;2023-08-08T06:06:20;3.30;;;1.15;;
59424;SDS011;45231;44.826;20.312;2023-08-08T06:08:46;4.65;;;1.23;;
59424;SDS011;45231;44.826;20.312;2023-08-08T06:11:12;3.63;;;1.00;;
59424;SDS011;45231;44.826;20.312;2023-08-08T06:13:38;2.85;;;1.10;;
59424;SDS011;45231;44.826;20.312;2023-08-08T06:16:04;3.72;;;1.10;;
59424;SDS011;45231;44.826;20.312;2023-08-08T06:18:34;6.70;;;1.10;;
59424;SDS011;45231;44.826;20.312;2023-08-08T06:21:00;2.85;;;1.17;;
59424;SDS011;45231;44.826;20.312;2023-08-08T06:23:27;2.83;;;1.10;;
59424;SDS011;45231;44.826;20.312;2023-08-08T06:25:53;1.90;;;0.90;;
59424;SDS011;45231;44.826;20.312;2023-08-08T06:28:19;4.72;;;1.08;;
59424;SDS011;45231;44.826;20.312;2023-08-08T06:30:45;2.85;;;1.08;;
59424;SDS011;45231;44.826;20.312;2023-08-08T06:33:11;2.35;;;1.10;;
59424;SDS011;45231;44.826;20.312;2023-08-08T06:35:38;3.85;;;1.20;;
59424;SDS011;45231;44.826;20.312;2023-08-08T06:38:04;3.28;;;1.20;;
59424;SDS011;45231;44.826;20.312;2023-08-08T06:40:30;4.55;;;0.95;;
59424;SDS011;45231;44.826;20.312;2023-08-08T06:42:57;2.80;;;1.02;;
59424;SDS011;45231;44.826;20.312;2023-08-08T06:45:23;3.30;;;1.20;;
59424;SDS011;45231;44.826;20.312;2023-08-08T06:47:49;2.67;;;1.20;;
59424;SDS011;45231;44.826;20.312;2023-08-08T06:50:15;4.35;;;1.60;;
59424;SDS011;45231;44.826;20.312;2023-08-08T06:52:42;4.63;;;1.00;;
59424;SDS011;45231;44.826;20.312;2023-08-08T06:57:34;3.83;;;1.00;;
59424;SDS011;45231;44.826;20.312;2023-08-08T07:00:00;3.95;;;1.20;;
59424;SDS011;45231;44.826;20.312;2023-08-08T07:02:29;3.53;;;1.58;;
59424;SDS011;45231;44.826;20.312;2023-08-08T07:04:55;3.58;;;1.02;;
59424;SDS011;45231;44.826;20.312;2023-08-08T07:07:21;2.97;;;1.05;;
59424;SDS011;45231;44.826;20.312;2023-08-08T07:09:48;3.05;;;1.08;;
59424;SDS011;45231;44.826;20.312;2023-08-08T07:12:14;3.13;;;1.10;;
59424;SDS011;45231;44.826;20.312;2023-08-08T07:14:40;3.88;;;1.10;;
59424;SDS011;45231;44.826;20.312;2023-08-08T07:17:06;3.95;;;1.10;;
59424;SDS011;45231;44.826;20.312;2023-08-08T07:19:32;2.30;;;1.13;;
59424;SDS011;45231;44.826;20.312;2023-08-08T07:21:58;4.28;;;1.00;;
59424;SDS011;45231;44.826;20.312;2023-08-08T07:24:24;3.78;;;1.15;;
59424;SDS011;45231;44.826;20.312;2023-08-08T07:26:54;2.25;;;1.00;;
59424;SDS011;45231;44.826;20.312;2023-08-08T07:29:20;2.55;;;1.00;;
59424;SDS011;45231;44.826;20.312;2023-08-08T07:34:12;2.95;;;1.23;;
59424;SDS011;45231;44.826;20.312;2023-08-08T07:36:38;6.30;;;1.40;;
59424;SDS011;45231;44.826;20.312;2023-08-08T07:39:04;3.65;;;1.13;;
59424;SDS011;45231;44.826;20.312;2023-08-08T07:41:30;4.32;;;1.20;;
59424;SDS011;45231;44.826;20.312;2023-08-08T07:43:56;4.15;;;1.38;;
59424;SDS011;45231;44.826;20.312;2023-08-08T07:46:23;3.10;;;1.15;;
59424;SDS011;45231;44.826;20.312;2023-08-08T07:48:49;2.67;;;1.13;;
59424;SDS011;45231;44.826;20.312;2023-08-08T07:51:15;2.70;;;1.02;;
59424;SDS011;45231;44.826;20.312;2023-08-08T07:53:41;6.05;;;1.30;;
59424;SDS011;45231;44.826;20.312;2023-08-08T07:56:07;5.18;;;1.25;;
59424;SDS011;45231;44.826;20.312;2023-08-08T07:58:33;5.72;;;1.50;;
59424;SDS011;45231;44.826;20.312;2023-08-08T08:00:59;4.57;;;1.35;;
59424;SDS011;45231;44.826;20.312;2023-08-08T08:03:28;2.22;;;1.10;;
59424;SDS011;45231;44.826;20.312;2023-08-08T08:05:54;3.05;;;1.10;;
59424;SDS011;45231;44.826;20.312;2023-08-08T08:08:20;3.15;;;1.00;;
59424;SDS011;45231;44.826;20.312;2023-08-08T08:10:46;4.00;;;1.25;;
59424;SDS011;45231;44.826;20.312;2023-08-08T08:13:13;6.97;;;1.40;;
59424;SDS011;45231;44.826;20.312;2023-08-08T08:15:39;4.95;;;1.30;;
59424;SDS011;45231;44.826;20.312;2023-08-08T08:18:05;3.35;;;1.27;;
59424;SDS011;45231;44.826;20.312;2023-08-08T08:20:31;4.32;;;1.60;;
59424;SDS011;45231;44.826;20.312;2023-08-08T08:22:58;4.97;;;1.70;;
59424;SDS011;45231;44.826;20.312;2023-08-08T08:25:24;5.10;;;1.30;;
59424;SDS011;45231;44.826;20.312;2023-08-08T08:27:50;4.47;;;1.40;;
59424;SDS011;45231;44.826;20.312;2023-08-08T08:30:16;3.72;;;1.13;;
59424;SDS011;45231;44.826;20.312;2023-08-08T08:32:43;5.30;;;1.65;;
59424;SDS011;45231;44.826;20.312;2023-08-08T08:35:10;6.60;;;1.50;;
59424;SDS011;45231;44.826;20.312;2023-08-08T08:37:38;4.38;;;1.67;;
59424;SDS011;45231;44.826;20.312;2023-08-08T08:40:04;3.15;;;1.20;;
59424;SDS011;45231;44.826;20.312;2023-08-08T08:44:57;3.90;;;1.58;;
59424;SDS011;45231;44.826;20.312;2023-08-08T08:47:23;3.40;;;1.42;;
59424;SDS011;45231;44.826;20.312;2023-08-08T08:49:49;4.35;;;1.40;;
59424;SDS011;45231;44.826;20.312;2023-08-08T08:52:16;3.72;;;1.45;;
59424;SDS011;45231;44.826;20.312;2023-08-08T08:57:09;7.97;;;1.73;;
59424;SDS011;45231;44.826;20.312;2023-08-08T08:59:35;3.67;;;1.27;;
59424;SDS011;45231;44.826;20.312;2023-08-08T09:04:27;3.50;;;1.40;;
59424;SDS011;45231;44.826;20.312;2023-08-08T09:06:54;2.85;;;1.20;;
59424;SDS011;45231;44.826;20.312;2023-08-08T09:11:48;4.30;;;1.50;;
59424;SDS011;45231;44.826;20.312;2023-08-08T09:14:22;3.53;;;1.27;;
59424;SDS011;45231;44.826;20.312;2023-08-08T09:16:48;3.58;;;1.35;;
59424;SDS011;45231;44.826;20.312;2023-08-08T09:19:16;4.47;;;1.65;;
59424;SDS011;45231;44.826;20.312;2023-08-08T09:21:45;3.67;;;1.55;;
59424;SDS011;45231;44.826;20.312;2023-08-08T09:24:11;3.45;;;1.10;;
59424;SDS011;45231;44.826;20.312;2023-08-08T09:26:39;3.25;;;1.10;;
59424;SDS011;45231;44.826;20.312;2023-08-08T09:29:05;3.53;;;1.42;;
59424;SDS011;45231;44.826;20.312;2023-08-08T09:33:57;4.47;;;1.50;;
59424;SDS011;45231;44.826;20.312;2023-08-08T09:36:23;4.28;;;1.42;;
59424;SDS011;45231;44.826;20.312;2023-08-08T09:38:50;6.40;;;1.15;;
59424;SDS011;45231;44.826;20.312;2023-08-08T09:41:16;3.40;;;1.27;;
59424;SDS011;45231;44.826;20.312;2023-08-08T09:46:08;5.07;;;1.50;;
59424;SDS011;45231;44.826;20.312;2023-08-08T09:51:01;4.65;;;1.42;;
59424;SDS011;45231;44.826;20.312;2023-08-08T09:53:27;4.78;;;1.20;;
59424;SDS011;45231;44.826;20.312;2023-08-08T09:55:54;4.18;;;1.30;;
59424;SDS011;45231;44.826;20.312;2023-08-08T09:58:21;4.18;;;1.30;;
59424;SDS011;45231;44.826;20.312;2023-08-08T10:00:50;7.13;;;1.67;;
59424;SDS011;45231;44.826;20.312;2023-08-08T10:03:17;5.28;;;1.50;;
59424;SDS011;45231;44.826;20.312;2023-08-08T10:05:43;5.80;;;1.60;;
59424;SDS011;45231;44.826;20.312;2023-08-08T10:08:09;4.40;;;1.33;;
59424;SDS011;45231;44.826;20.312;2023-08-08T10:10:35;5.03;;;1.48;;
59424;SDS011;45231;44.826;20.312;2023-08-08T10:13:03;5.60;;;1.70;;
59424;SDS011;45231;44.826;20.312;2023-08-08T10:15:29;5.72;;;1.50;;
59424;SDS011;45231;44.826;20.312;2023-08-08T10:17:56;5.43;;;1.52;;
59424;SDS011;45231;44.826;20.312;2023-08-08T10:20:24;4.63;;;1.63;;
59424;SDS011;45231;44.826;20.312;2023-08-08T10:22:51;5.18;;;1.30;;
59424;SDS011;45231;44.826;20.312;2023-08-08T10:25:18;4.45;;;1.33;;
59424;SDS011;45231;44.826;20.312;2023-08-08T10:27:44;5.78;;;1.60;;
59424;SDS011;45231;44.826;20.312;2023-08-08T10:32:44;8.40;;;1.65;;
59424;SDS011;45231;44.826;20.312;2023-08-08T10:35:15;3.28;;;1.30;;
59424;SDS011;45231;44.826;20.312;2023-08-08T10:37:51;4.68;;;1.40;;
59424;SDS011;45231;44.826;20.312;2023-08-08T10:40:18;4.20;;;1.50;;
59424;SDS011;45231;44.826;20.312;2023-08-08T10:45:12;4.80;;;1.60;;
59424;SDS011;45231;44.826;20.312;2023-08-08T10:47:41;4.70;;;1.60;;
59424;SDS011;45231;44.826;20.312;2023-08-08T10:50:14;4.50;;;1.50;;
59424;SDS011;45231;44.826;20.312;2023-08-08T10:55:19;5.82;;;1.70;;
59424;SDS011;45231;44.826;20.312;2023-08-08T10:57:53;3.10;;;1.27;;
59424;SDS011;45231;44.826;20.312;2023-08-08T11:00:20;4.38;;;1.45;;
59424;SDS011;45231;44.826;20.312;2023-08-08T11:02:46;3.03;;;1.23;;
59424;SDS011;45231;44.826;20.312;2023-08-08T11:05:12;4.50;;;1.50;;
59424;SDS011;45231;44.826;20.312;2023-08-08T11:07:40;5.50;;;1.42;;
59424;SDS011;45231;44.826;20.312;2023-08-08T11:10:07;4.22;;;1.40;;
59424;SDS011;45231;44.826;20.312;2023-08-08T11:12:33;5.78;;;1.40;;
59424;SDS011;45231;44.826;20.312;2023-08-08T11:17:25;7.05;;;1.60;;
59424;SDS011;45231;44.826;20.312;2023-08-08T11:19:52;5.63;;;1.75;;
59424;SDS011;45231;44.826;20.312;2023-08-08T11:24:44;3.60;;;1.40;;
59424;SDS011;45231;44.826;20.312;2023-08-08T11:29:36;4.32;;;1.40;;
59424;SDS011;45231;44.826;20.312;2023-08-08T11:32:02;4.93;;;1.33;;
59424;SDS011;45231;44.826;20.312;2023-08-08T11:34:30;3.20;;;1.17;;
59424;SDS011;45231;44.826;20.312;2023-08-08T11:36:57;3.83;;;1.30;;
59424;SDS011;45231;44.826;20.312;2023-08-08T11:39:23;4.85;;;1.75;;
59424;SDS011;45231;44.826;20.312;2023-08-08T11:41:49;5.18;;;1.52;;
59424;SDS011;45231;44.826;20.312;2023-08-08T11:44:16;4.32;;;1.33;;
59424;SDS011;45231;44.826;20.312;2023-08-08T11:46:43;5.60;;;1.40;;
59424;SDS011;45231;44.826;20.312;2023-08-08T11:49:10;4.13;;;1.40;;
59424;SDS011;45231;44.826;20.312;2023-08-08T11:51:36;4.50;;;1.40;;
59424;SDS011;45231;44.826;20.312;2023-08-08T11:56:34;2.97;;;1.17;;
59424;SDS011;45231;44.826;20.312;2023-08-08T11:59:01;3.80;;;1.38;;
59424;SDS011;45231;44.826;20.312;2023-08-08T12:01:27;3.63;;;1.38;;
59424;SDS011;45231;44.826;20.312;2023-08-08T12:03:54;5.00;;;1.30;;
59424;SDS011;45231;44.826;20.312;2023-08-08T12:06:20;4.05;;;1.45;;
59424;SDS011;45231;44.826;20.312;2023-08-08T12:11:13;4.78;;;1.10;;
59424;SDS011;45231;44.826;20.312;2023-08-08T12:13:42;8.68;;;1.45;;
59424;SDS011;45231;44.826;20.312;2023-08-08T12:16:09;3.33;;;1.20;;
59424;SDS011;45231;44.826;20.312;2023-08-08T12:18:36;3.88;;;1.17;;
59424;SDS011;45231;44.826;20.312;2023-08-08T12:21:06;4.15;;;1.40;;
59424;SDS011;45231;44.826;20.312;2023-08-08T12:23:33;3.42;;;1.23;;
59424;SDS011;45231;44.826;20.312;2023-08-08T12:25:59;5.80;;;1.33;;
59424;SDS011;45231;44.826;20.312;2023-08-08T12:28:25;4.20;;;1.30;;
59424;SDS011;45231;44.826;20.312;2023-08-08T12:30:52;3.55;;;1.40;;
59424;SDS011;45231;44.826;20.312;2023-08-08T12:35:43;3.65;;;1.10;;
59424;SDS011;45231;44.826;20.312;2023-08-08T12:40:36;3.70;;;1.20;;
59424;SDS011;45231;44.826;20.312;2023-08-08T12:43:02;5.82;;;1.30;;
59424;SDS011;45231;44.826;20.312;2023-08-08T12:45:28;3.55;;;1.30;;
59424;SDS011;45231;44.826;20.312;2023-08-08T12:47:55;4.25;;;1.40;;
59424;SDS011;45231;44.826;20.312;2023-08-08T12:52:48;3.30;;;1.40;;
59424;SDS011;45231;44.826;20.312;2023-08-08T12:55:14;5.47;;;1.10;;
59424;SDS011;45231;44.826;20.312;2023-08-08T12:57:43;3.28;;;1.20;;
59424;SDS011;45231;44.826;20.312;2023-08-08T13:00:09;3.13;;;1.20;;
59424;SDS011;45231;44.826;20.312;2023-08-08T13:02:36;4.30;;;1.27;;
59424;SDS011;45231;44.826;20.312;2023-08-08T13:05:03;6.75;;;1.35;;
59424;SDS011;45231;44.826;20.312;2023-08-08T13:07:29;3.75;;;1.30;;
59424;SDS011;45231;44.826;20.312;2023-08-08T13:09:55;4.88;;;1.30;;
59424;SDS011;45231;44.826;20.312;2023-08-08T13:14:47;3.53;;;1.20;;
59424;SDS011;45231;44.826;20.312;2023-08-08T13:17:13;3.92;;;1.50;;
59424;SDS011;45231;44.826;20.312;2023-08-08T13:19:40;3.33;;;1.30;;
59424;SDS011;45231;44.826;20.312;2023-08-08T13:22:06;6.85;;;1.90;;
59424;SDS011;45231;44.826;20.312;2023-08-08T13:26:58;5.20;;;1.17;;
59424;SDS011;45231;44.826;20.312;2023-08-08T13:29:24;3.45;;;1.25;;
59424;SDS011;45231;44.826;20.312;2023-08-08T13:31:50;3.50;;;1.48;;
59424;SDS011;45231;44.826;20.312;2023-08-08T13:34:16;3.60;;;1.30;;
59424;SDS011;45231;44.826;20.312;2023-08-08T13:36:42;3.47;;;1.30;;
59424;SDS011;45231;44.826;20.312;2023-08-08T13:39:08;6.00;;;1.40;;
59424;SDS011;45231;44.826;20.312;2023-08-08T13:41:35;3.20;;;1.30;;
59424;SDS011;45231;44.826;20.312;2023-08-08T13:44:01;3.83;;;1.38;;
59424;SDS011;45231;44.826;20.312;2023-08-08T13:46:27;4.30;;;1.45;;
59424;SDS011;45231;44.826;20.312;2023-08-08T13:48:53;3.75;;;1.23;;
59424;SDS011;45231;44.826;20.312;2023-08-08T13:53:45;4.25;;;1.20;;
59424;SDS011;45231;44.826;20.312;2023-08-08T13:56:13;3.30;;;1.20;;
59424;SDS011;45231;44.826;20.312;2023-08-08T14:01:05;3.17;;;1.27;;
59424;SDS011;45231;44.826;20.312;2023-08-08T14:05:57;4.10;;;1.13;;
59424;SDS011;45231;44.826;20.312;2023-08-08T14:08:24;5.47;;;1.20;;
59424;SDS011;45231;44.826;20.312;2023-08-08T14:10:50;3.88;;;1.30;;
59424;SDS011;45231;44.826;20.312;2023-08-08T14:13:16;3.80;;;1.13;;
59424;SDS011;45231;44.826;20.312;2023-08-08T14:15:44;2.47;;;1.00;;
59424;SDS011;45231;44.826;20.312;2023-08-08T14:18:10;5.63;;;1.38;;
59424;SDS011;45231;44.826;20.312;2023-08-08T14:20:36;3.85;;;1.55;;
59424;SDS011;45231;44.826;20.312;2023-08-08T14:23:03;3.55;;;1.13;;
59424;SDS011;45231;44.826;20.312;2023-08-08T14:27:55;3.33;;;1.17;;
59424;SDS011;45231;44.826;20.312;2023-08-08T14:30:25;3.28;;;1.27;;
59424;SDS011;45231;44.826;20.312;2023-08-08T14:32:53;4.07;;;1.30;;
59424;SDS011;45231;44.826;20.312;2023-08-08T14:35:19;3.90;;;1.27;;
59424;SDS011;45231;44.826;20.312;2023-08-08T14:37:45;5.03;;;1.45;;
59424;SDS011;45231;44.826;20.312;2023-08-08T14:42:37;5.10;;;1.30;;
59424;SDS011;45231;44.826;20.312;2023-08-08T14:45:03;4.97;;;1.50;;
59424;SDS011;45231;44.826;20.312;2023-08-08T14:47:30;2.72;;;1.15;;
59424;SDS011;45231;44.826;20.312;2023-08-08T14:49:56;4.30;;;1.30;;
59424;SDS011;45231;44.826;20.312;2023-08-08T14:54:50;4.93;;;1.25;;
59424;SDS011;45231;44.826;20.312;2023-08-08T14:57:16;4.43;;;1.05;;
59424;SDS011;45231;44.826;20.312;2023-08-08T15:02:08;3.95;;;1.25;;
59424;SDS011;45231;44.826;20.312;2023-08-08T15:04:34;3.40;;;1.23;;
59424;SDS011;45231;44.826;20.312;2023-08-08T15:09:27;3.67;;;1.40;;
59424;SDS011;45231;44.826;20.312;2023-08-08T15:14:19;3.03;;;1.23;;
59424;SDS011;45231;44.826;20.312;2023-08-08T15:16:48;5.32;;;1.42;;
59424;SDS011;45231;44.826;20.312;2023-08-08T15:19:14;4.82;;;1.40;;
59424;SDS011;45231;44.826;20.312;2023-08-08T15:21:41;4.15;;;1.50;;
59424;SDS011;45231;44.826;20.312;2023-08-08T15:24:07;4.47;;;1.20;;
59424;SDS011;45231;44.826;20.312;2023-08-08T15:26:34;3.47;;;1.40;;
59424;SDS011;45231;44.826;20.312;2023-08-08T15:29:00;4.40;;;1.45;;
59424;SDS011;45231;44.826;20.312;2023-08-08T15:31:26;5.10;;;1.20;;
59424;SDS011;45231;44.826;20.312;2023-08-08T15:33:53;5.05;;;1.25;;
59424;SDS011;45231;44.826;20.312;2023-08-08T15:36:19;5.30;;;1.48;;
59424;SDS011;45231;44.826;20.312;2023-08-08T15:38:45;7.38;;;1.35;;
59424;SDS011;45231;44.826;20.312;2023-08-08T15:43:37;4.93;;;1.25;;
59424;SDS011;45231;44.826;20.312;2023-08-08T15:46:03;5.25;;;1.38;;
59424;SDS011;45231;44.826;20.312;2023-08-08T15:48:29;3.08;;;1.20;;
59424;SDS011;45231;44.826;20.312;2023-08-08T15:50:57;4.38;;;1.38;;